This is the latest recevied weather packets stored in our database for station/object KF7MJQ-10. If no packets are shown the sender has not sent any weather packets the latest 10 day(s).
| Time | Temp. | Humidity | Pressure | Rain* | Wind** | Luminosity | Snow |
|---|---|---|---|---|---|---|---|
| 1778227232 | - | - | 1017.1 hPa | 0 mm | - | - | - |
| 1778226616 | - | - | 1017.1 hPa | 0 mm | - | - | - |
| 1778225406 | - | - | 1017.1 hPa | 0 mm | - | - | - |
| 1778224845 | - | - | 1017.2 hPa | 0 mm | - | - | - |
| 1778222119 | 7.22° C | 1% | 1017.3 hPa | 0 mm | - | - | - |
| 1778218231 | 8.33° C | 1% | 1017.4 hPa | 0 mm | - | - | - |
| 1778217605 | 8.33° C | 1% | 1017.4 hPa | 0 mm | - | - | - |
| 1778215838 | 8.89° C | 1% | 1017.4 hPa | 0 mm | - | - | - |
| 1778215534 | 8.89° C | 1% | 1017.6 hPa | 0 mm | - | - | - |
| 1778214013 | 9.44° C | 1% | 1017.7 hPa | 0 mm | - | - | - |
| 1778206229 | 12.22° C | 36% | 1017.6 hPa | 0 mm | - | - | - |
| 1778203564 | 12.78° C | 48% | 1018.2 hPa | 0 mm | - | - | - |
| 1778201120 | 12.78° C | 52% | 1018.6 hPa | 0 mm | - | - | - |
| 1778199663 | 12.78° C | 52% | 1018.9 hPa | 0 mm | - | - | - |
| 1778190660 | 13.33° C | 56% | 1019.9 hPa | 0 mm | - | - | - |
| 1778189489 | 13.89° C | 55% | 1019.9 hPa | 0 mm | - | - | - |
| 1778188854 | 13.89° C | 55% | 1019.9 hPa | 0 mm | - | - | - |
| 1778188555 | 13.33° C | 55% | 1019.9 hPa | 0 mm | - | - | - |
| 1778187954 | 13.33° C | 56% | 1020 hPa | 0 mm | - | - | - |
| 1778187650 | 13.33° C | 55% | 1020 hPa | 0 mm | - | - | - |
| 1778182531 | 13.89° C | 54% | 1020.4 hPa | 0 mm | - | - | - |
| 1778181930 | 13.33° C | 54% | 1020.5 hPa | 0 mm | - | - | - |
| 1778181009 | 13.33° C | 54% | 1020.5 hPa | 0 mm | - | - | - |
| 1778179243 | 13.33° C | 53% | 1020.5 hPa | 0 mm | - | - | - |
| 1778177117 | 13.33° C | 54% | 1020.6 hPa | 0 mm | - | - | - |
* Rain latest hour (hover to see other rain measurements)
** Current wind speed in m/s (hover to see current wind gust speed)